createdAt,value
2022-08-04T00:03:43.583Z,46.6
2022-08-04T00:09:02.343Z,46.5
2022-08-04T00:14:20.546Z,47.3
2022-08-04T00:19:39.035Z,46.7
2022-08-04T00:24:57.238Z,46.8
2022-08-04T00:30:15.709Z,46.7
2022-08-04T00:35:33.924Z,46.9
2022-08-04T00:40:52.416Z,47.2
2022-08-04T00:46:18.677Z,46.6
2022-08-04T00:51:37.151Z,47.1
2022-08-04T00:56:55.640Z,47.2
2022-08-04T01:02:14.117Z,47.2
2022-08-04T01:07:32.886Z,47
2022-08-04T01:12:51.092Z,47
2022-08-04T01:18:09.294Z,45.7
2022-08-04T01:23:27.778Z,46.4
2022-08-04T01:28:45.987Z,45.8
2022-08-04T01:34:07.732Z,45.3
2022-08-04T01:39:26.287Z,45.6
2022-08-04T01:44:45.765Z,46.2
2022-08-04T01:50:04.533Z,45.5
2022-08-04T01:55:23.016Z,46
2022-08-04T02:00:41.230Z,45.8
2022-08-04T02:06:04.593Z,46.4
2022-08-04T02:11:23.086Z,46.1
2022-08-04T02:16:41.289Z,45.5
2022-08-04T02:21:59.777Z,44.6
2022-08-04T02:27:18.274Z,45.3
2022-08-04T02:32:36.757Z,45.2
2022-08-04T02:37:54.991Z,44.5
2022-08-04T02:43:13.760Z,44.7
2022-08-04T02:48:32.122Z,44.4
2022-08-04T02:53:50.603Z,43.7
2022-08-04T02:59:09.377Z,44.5
2022-08-04T03:04:27.854Z,44.5
2022-08-04T03:09:46.345Z,44.7
2022-08-04T03:15:04.819Z,44.1
2022-08-04T03:20:23.313Z,44.2
2022-08-04T03:25:57.979Z,44.6
2022-08-04T03:31:16.479Z,45.2
2022-08-04T03:36:35.234Z,44.5
2022-08-04T03:42:07.195Z,44.6
2022-08-04T03:47:26.632Z,44.9
2022-08-04T03:52:47.985Z,44
2022-08-04T03:58:06.467Z,43.3
2022-08-04T04:03:29.561Z,43.8
2022-08-04T04:08:50.074Z,44
2022-08-04T04:14:10.203Z,44.1
2022-08-04T04:19:28.688Z,44.3
2022-08-04T04:24:34.583Z,44.1
2022-08-04T04:29:53.877Z,43
2022-08-04T04:35:12.636Z,43.6
2022-08-04T04:40:31.113Z,43.6
2022-08-04T04:45:49.043Z,46
2022-08-04T04:51:07.247Z,45.9
2022-08-04T04:56:25.999Z,45.6
2022-08-04T05:01:44.767Z,46.5
2022-08-04T05:07:03.514Z,46.6
2022-08-04T05:14:42.033Z,46.8
2022-08-04T05:20:01.414Z,46.2
2022-08-04T05:25:19.614Z,45.1
2022-08-04T05:30:39.409Z,45.3
2022-08-04T05:36:41.740Z,45
2022-08-04T05:42:07.780Z,45.4
2022-08-04T05:47:25.708Z,45.3
2022-08-04T05:52:44.481Z,45.2
2022-08-04T05:58:03.219Z,45.7
2022-08-04T06:03:21.982Z,45.5
2022-08-04T06:08:40.581Z,44.6
2022-08-04T06:13:58.481Z,44.4
2022-08-04T06:20:22.200Z,44.8
2022-08-04T06:25:40.912Z,44
2022-08-04T06:32:39.995Z,45.5
2022-08-04T06:38:02.530Z,45.1
2022-08-04T06:43:21.259Z,45.1
2022-08-04T06:48:40.984Z,45.5
2022-08-04T06:53:59.449Z,44.1
2022-08-04T06:59:17.853Z,44.7
2022-08-04T07:04:36.065Z,44.8
2022-08-04T07:09:54.821Z,44.5
2022-08-04T07:15:15.347Z,44.6
2022-08-04T07:20:37.707Z,44.6
2022-08-04T07:26:13.917Z,44.8
2022-08-04T07:31:36.789Z,44.3
2022-08-04T07:36:56.414Z,44.2
2022-08-04T07:42:14.617Z,44.6
2022-08-04T07:47:33.106Z,44.7
2022-08-04T07:53:56.528Z,45.2
2022-08-04T07:59:15.122Z,44.5
2022-08-04T08:04:33.614Z,44.7
2022-08-04T08:09:52.095Z,44.6
2022-08-04T08:15:13.463Z,44
2022-08-04T08:20:34.371Z,44.8
2022-08-04T08:25:52.851Z,44.7
2022-08-04T08:31:11.338Z,44.9
2022-08-04T08:36:29.826Z,44.6
2022-08-04T08:41:52.732Z,44.3
2022-08-04T08:47:11.535Z,44.8
2022-08-04T08:53:03.355Z,44.7
2022-08-04T08:58:22.245Z,44
2022-08-04T09:03:41.004Z,44.6
2022-08-04T09:08:59.481Z,44.3
2022-08-04T09:14:17.697Z,43.6
2022-08-04T09:19:40.196Z,44.7
2022-08-04T09:24:58.955Z,44.9
2022-08-04T09:30:17.586Z,43.9
2022-08-04T09:35:36.322Z,44.1
2022-08-04T09:40:58.927Z,44.4
2022-08-04T09:46:17.410Z,45.1
2022-08-04T09:52:00.151Z,44.1
2022-08-04T09:57:18.629Z,44.7
2022-08-04T10:02:37.239Z,45
2022-08-04T10:08:17.796Z,44.9
2022-08-04T10:13:36.263Z,43.9
2022-08-04T10:18:54.737Z,44.1
2022-08-04T10:24:13.502Z,45
2022-08-04T10:29:31.980Z,44.5
2022-08-04T10:34:50.740Z,44.8
2022-08-04T10:40:09.783Z,45.2
2022-08-04T10:45:28.082Z,45.4
2022-08-04T10:50:46.543Z,45
2022-08-04T10:56:09.640Z,44.9
2022-08-04T11:02:04.067Z,44.3
2022-08-04T11:07:22.919Z,45.4
2022-08-04T11:12:41.269Z,44.5
2022-08-04T11:17:59.751Z,45.1
2022-08-04T11:23:17.961Z,45.1
2022-08-04T11:28:36.154Z,45.2
2022-08-04T11:33:54.640Z,44.5
2022-08-04T11:39:12.946Z,45.4
2022-08-04T11:44:31.428Z,45
2022-08-04T11:49:58.931Z,44.3
2022-08-04T11:55:17.408Z,44.3
2022-08-04T12:00:35.340Z,45
2022-08-04T12:05:54.106Z,45.5
2022-08-04T12:11:12.594Z,44.7
2022-08-04T12:16:33.547Z,45
2022-08-04T12:21:57.783Z,45.5
2022-08-04T12:27:16.265Z,44.8
2022-08-04T12:32:34.747Z,44.3
2022-08-04T12:37:59.035Z,45.7
2022-08-04T12:43:17.522Z,45.7
2022-08-04T12:48:36.804Z,45.6
2022-08-04T12:53:55.286Z,44.7
2022-08-04T12:59:13.943Z,44.5
2022-08-04T13:04:32.696Z,45.6
2022-08-04T13:09:54.944Z,44.6
2022-08-04T13:15:18.988Z,45.4
2022-08-04T13:20:37.568Z,45.1
2022-08-04T13:26:56.254Z,45.4
2022-08-04T13:32:14.870Z,45.4
2022-08-04T13:37:33.347Z,45.9
2022-08-04T13:42:51.819Z,45.7
2022-08-04T13:48:33.265Z,45.9
2022-08-04T13:53:51.670Z,45.7
2022-08-04T13:59:14.116Z,46.6
2022-08-04T14:04:32.320Z,45.6
2022-08-04T14:10:05.001Z,46.5
2022-08-04T14:15:23.201Z,46.5
2022-08-04T14:20:41.405Z,46.7
2022-08-04T14:26:00.214Z,46
2022-08-04T14:31:18.378Z,46.4
2022-08-04T14:37:19.530Z,45.8
2022-08-04T14:42:38.492Z,46.2
2022-08-04T14:47:57.242Z,46.3
2022-08-04T14:53:18.085Z,46.9
2022-08-04T14:58:40.462Z,45.8
2022-08-04T15:03:59.220Z,45.8
2022-08-04T15:09:17.699Z,46.8
2022-08-04T15:14:38.899Z,46.7
2022-08-04T15:19:57.400Z,46.4
2022-08-04T15:25:16.468Z,46.3
2022-08-04T15:30:34.625Z,47.8
2022-08-04T15:35:53.101Z,47.4
2022-08-04T15:40:55.975Z,46.8
2022-08-04T15:46:45.538Z,46.9
2022-08-04T15:52:12.969Z,45.7
2022-08-04T15:57:31.140Z,45.1
2022-08-04T16:02:49.594Z,44.9
2022-08-04T16:08:08.153Z,44.6
2022-08-04T16:13:26.623Z,45
2022-08-04T16:18:45.389Z,44
2022-08-04T16:24:07.363Z,44.7
2022-08-04T16:29:25.531Z,44.5
2022-08-04T16:34:56.552Z,44.9
2022-08-04T16:40:14.844Z,41.5
2022-08-04T16:45:34.298Z,41.5
2022-08-04T16:50:54.665Z,41
2022-08-04T16:56:13.434Z,40.7
2022-08-04T17:01:34.917Z,38.2
2022-08-04T17:06:53.361Z,38.7
2022-08-04T17:12:11.833Z,41
2022-08-04T17:18:06.944Z,41
2022-08-04T17:24:18.465Z,41.3
2022-08-04T17:29:45.698Z,38.6
2022-08-04T17:35:05.194Z,39
2022-08-04T17:40:27.073Z,40.3
2022-08-04T17:45:57.506Z,39.2
2022-08-04T17:51:18.055Z,39.3
2022-08-04T17:56:52.448Z,39.1
2022-08-04T18:02:11.432Z,39.9
2022-08-04T22:30:37.792Z,42.3
2022-08-04T22:35:58.521Z,42.3
2022-08-04T22:41:19.458Z,42.5
2022-08-04T22:46:41.106Z,43
2022-08-04T22:51:59.664Z,42.8
2022-08-04T22:58:09.277Z,43.1
2022-08-04T23:03:38.839Z,42.3
2022-08-04T23:08:57.494Z,43.1
2022-08-04T23:14:15.975Z,42.1
2022-08-04T23:19:35.815Z,41.7
2022-08-04T23:24:54.019Z,42.6
2022-08-04T23:30:14.250Z,43.1
2022-08-04T23:35:33.509Z,43.3
2022-08-04T23:40:53.717Z,42.7
2022-08-04T23:46:11.612Z,43.1
2022-08-04T23:51:33.185Z,42.5
2022-08-04T23:56:55.388Z,43.3
